createdAt,value
2023-02-22T00:00:43.194Z,18.77
2023-02-22T00:03:15.006Z,18.60
2023-02-22T00:05:46.899Z,20.00
2023-02-22T00:08:15.600Z,18.07
2023-02-22T00:10:42.299Z,17.63
2023-02-22T00:13:11.559Z,21.10
2023-02-22T00:15:41.327Z,19.07
2023-02-22T00:18:14.565Z,18.43
2023-02-22T00:20:41.525Z,18.80
2023-02-22T00:23:14.186Z,19.87
2023-02-22T00:25:40.905Z,24.83
2023-02-22T00:28:07.820Z,28.67
2023-02-22T00:30:35.029Z,26.00
2023-02-22T00:33:02.059Z,27.00
2023-02-22T00:35:31.030Z,31.83
2023-02-22T00:38:03.181Z,29.27
2023-02-22T00:40:32.607Z,31.07
2023-02-22T00:43:01.289Z,30.53
2023-02-22T00:45:30.094Z,31.10
2023-02-22T00:47:57.229Z,29.90
2023-02-22T00:50:26.696Z,31.37
2023-02-22T00:52:54.212Z,30.50
2023-02-22T00:55:26.977Z,32.37
2023-02-22T00:57:55.474Z,32.50
2023-02-22T01:00:28.409Z,34.00
2023-02-22T01:02:56.732Z,33.83
2023-02-22T01:05:27.051Z,31.90
2023-02-22T01:07:58.032Z,33.30
2023-02-22T01:10:26.848Z,32.40
2023-02-22T01:12:54.451Z,36.43
2023-02-22T01:15:24.468Z,32.33
2023-02-22T01:17:53.478Z,31.37
2023-02-22T01:20:29.059Z,31.50
2023-02-22T01:22:59.039Z,33.67
2023-02-22T01:25:28.378Z,34.10
2023-02-22T01:27:56.371Z,32.93
2023-02-22T01:30:27.992Z,34.77
2023-02-22T01:32:55.667Z,35.37
2023-02-22T01:35:26.060Z,35.07
2023-02-22T01:37:52.790Z,37.10
2023-02-22T01:40:27.566Z,35.70
2023-02-22T01:42:57.738Z,34.07
2023-02-22T01:45:30.486Z,34.57
2023-02-22T01:48:10.603Z,33.80
2023-02-22T01:50:41.923Z,34.50
2023-02-22T01:53:11.231Z,31.67
2023-02-22T01:55:39.220Z,32.70
2023-02-22T01:58:07.287Z,34.67
2023-02-22T02:00:34.096Z,33.50
2023-02-22T02:03:09.272Z,34.30
2023-02-22T02:05:37.117Z,34.03
2023-02-22T02:08:28.126Z,31.60
2023-02-22T02:10:56.512Z,34.10
2023-02-22T02:13:24.377Z,33.63
2023-02-22T02:15:55.024Z,34.40
2023-02-22T02:18:24.204Z,31.47
2023-02-22T02:20:53.588Z,32.20
2023-02-22T02:23:51.763Z,34.10
2023-02-22T02:26:46.165Z,33.10
2023-02-22T02:29:37.385Z,32.40
2023-02-22T02:32:20.053Z,30.20
2023-02-22T02:35:13.011Z,31.77
2023-02-22T02:37:51.222Z,31.60
2023-02-22T02:40:40.938Z,31.80
2023-02-22T02:43:29.328Z,32.17
2023-02-22T02:46:03.910Z,33.83
2023-02-22T02:48:34.140Z,34.50
2023-02-22T02:51:07.544Z,34.80
2023-02-22T02:53:41.452Z,33.60
2023-02-22T02:56:08.153Z,31.03
2023-02-22T02:58:52.675Z,33.10
2023-02-22T03:01:47.383Z,31.53
2023-02-22T03:04:44.558Z,32.00
2023-02-22T03:07:38.571Z,29.07
2023-02-22T03:10:33.653Z,30.60
2023-02-22T03:13:09.283Z,30.90
2023-02-22T03:16:02.674Z,31.03
2023-02-22T03:18:38.885Z,30.30
2023-02-22T03:21:18.964Z,31.20
2023-02-22T03:23:57.956Z,28.87
2023-02-22T03:26:45.148Z,30.10
2023-02-22T03:29:16.977Z,28.10
2023-02-22T03:31:50.726Z,30.60
2023-02-22T03:34:27.492Z,30.30
2023-02-22T03:37:02.443Z,31.80
2023-02-22T03:39:32.795Z,31.40
2023-02-22T03:42:11.592Z,31.50
2023-02-22T03:44:41.327Z,30.80
2023-02-22T03:47:12.984Z,28.27
2023-02-22T03:49:53.581Z,30.77
2023-02-22T03:52:23.402Z,30.90
2023-02-22T03:54:53.616Z,31.77
2023-02-22T03:57:29.800Z,31.73
2023-02-22T04:00:07.973Z,29.97
2023-02-22T04:02:41.742Z,29.70
2023-02-22T04:05:14.112Z,30.17
2023-02-22T04:07:42.329Z,30.20
2023-02-22T04:10:12.077Z,30.97
2023-02-22T04:12:39.155Z,30.73
2023-02-22T04:15:09.376Z,27.80
2023-02-22T04:17:36.505Z,29.83
2023-02-22T04:20:04.920Z,27.93
2023-02-22T04:22:43.306Z,27.77
2023-02-22T04:25:10.087Z,29.80
2023-02-22T04:27:37.219Z,29.37
2023-02-22T04:30:04.234Z,26.50
2023-02-22T04:32:33.187Z,26.63
2023-02-22T04:34:59.927Z,24.87
2023-02-22T04:37:28.427Z,28.30
2023-02-22T04:39:55.519Z,28.23
2023-02-22T04:42:22.254Z,30.80
2023-02-22T04:44:48.945Z,28.43
2023-02-22T04:47:15.991Z,27.20
2023-02-22T04:49:42.686Z,27.93
2023-02-22T04:52:09.348Z,25.87
2023-02-22T04:54:38.279Z,26.70
2023-02-22T04:57:05.025Z,27.50
2023-02-22T04:59:33.592Z,27.93
2023-02-22T05:02:01.363Z,29.23
2023-02-22T05:04:28.122Z,25.93
2023-02-22T05:06:55.196Z,28.57
2023-02-22T05:09:21.955Z,29.87
2023-02-22T05:11:49.248Z,28.93
2023-02-22T05:14:15.944Z,29.97
2023-02-22T05:16:42.619Z,29.87
2023-02-22T05:19:09.326Z,33.30
2023-02-22T05:21:35.971Z,29.50
2023-02-22T05:24:02.646Z,32.10
2023-02-22T05:26:29.475Z,29.93
2023-02-22T05:28:56.150Z,32.40
2023-02-22T05:31:22.853Z,30.00
2023-02-22T05:33:49.549Z,33.13
2023-02-22T05:36:16.716Z,33.80
2023-02-22T05:38:45.233Z,33.90
2023-02-22T05:41:13.776Z,28.10
2023-02-22T05:43:40.747Z,28.10
2023-02-22T05:46:07.937Z,30.07
2023-02-22T05:48:35.041Z,32.07
2023-02-22T05:51:01.693Z,27.97
2023-02-22T05:53:28.329Z,32.50
2023-02-22T05:55:55.096Z,32.97
2023-02-22T05:58:22.296Z,32.80
2023-02-22T06:00:49.014Z,30.70
2023-02-22T06:03:15.714Z,35.40
2023-02-22T06:05:42.469Z,32.73
2023-02-22T06:08:09.661Z,34.90
2023-02-22T06:10:36.392Z,32.30
2023-02-22T06:13:04.933Z,29.70
2023-02-22T06:15:31.624Z,29.00
2023-02-22T06:18:00.514Z,29.40
2023-02-22T06:20:28.883Z,28.47
2023-02-22T06:22:57.589Z,29.27
2023-02-22T06:25:26.912Z,29.77
2023-02-22T06:27:54.255Z,28.10
2023-02-22T06:30:23.869Z,29.93
2023-02-22T06:32:51.084Z,29.67
2023-02-22T06:35:18.130Z,31.97
2023-02-22T06:37:45.531Z,28.07
2023-02-22T06:40:13.301Z,28.53
2023-02-22T06:42:40.716Z,31.93
2023-02-22T06:45:08.222Z,32.27
2023-02-22T06:47:39.526Z,28.43
2023-02-22T06:50:06.777Z,28.77
2023-02-22T06:52:33.602Z,28.90
2023-02-22T06:55:00.261Z,25.53
2023-02-22T06:57:26.918Z,29.57
2023-02-22T06:59:54.042Z,29.83
2023-02-22T07:02:20.700Z,28.23
2023-02-22T07:04:47.360Z,31.30
2023-02-22T07:07:14.045Z,31.87
2023-02-22T07:09:40.692Z,31.80
2023-02-22T07:12:07.793Z,31.03
2023-02-22T07:14:34.740Z,32.10
2023-02-22T07:17:01.450Z,34.83
2023-02-22T07:19:28.804Z,31.93
2023-02-22T07:21:59.131Z,34.00
2023-02-22T07:24:28.254Z,33.57
2023-02-22T07:26:54.976Z,32.53
2023-02-22T07:29:22.431Z,32.33
2023-02-22T07:31:49.595Z,32.43
2023-02-22T07:34:16.304Z,31.40
2023-02-22T07:36:43.077Z,32.40
2023-02-22T07:39:09.728Z,36.00
2023-02-22T07:41:36.909Z,33.50
2023-02-22T07:44:12.896Z,31.97
2023-02-22T07:46:39.611Z,32.10
2023-02-22T07:49:06.316Z,33.00
2023-02-22T07:51:32.951Z,34.60
2023-02-22T07:53:59.603Z,35.10
2023-02-22T07:56:26.241Z,31.53
2023-02-22T07:58:52.917Z,33.43
2023-02-22T08:01:19.782Z,35.10
2023-02-22T08:03:47.460Z,36.80
2023-02-22T08:06:14.291Z,32.70
2023-02-22T08:08:41.007Z,33.23
2023-02-22T08:11:07.684Z,33.70
2023-02-22T08:13:37.057Z,32.63
2023-02-22T08:16:04.061Z,31.60
2023-02-22T08:18:30.863Z,31.13
2023-02-22T08:20:57.713Z,31.30
2023-02-22T08:23:26.941Z,29.23
2023-02-22T08:25:54.064Z,35.57
2023-02-22T08:28:23.332Z,28.83
2023-02-22T08:30:50.978Z,26.47
2023-02-22T08:33:19.481Z,28.90
2023-02-22T08:35:49.471Z,28.27
2023-02-22T08:38:22.759Z,28.50
2023-02-22T08:40:49.925Z,25.50
2023-02-22T08:43:17.836Z,25.73
2023-02-22T08:45:45.261Z,24.87
2023-02-22T08:48:13.966Z,23.10
2023-02-22T08:50:41.767Z,23.67
2023-02-22T08:53:09.670Z,21.67
2023-02-22T08:55:39.464Z,21.17
2023-02-22T08:58:09.189Z,20.47
2023-02-22T09:00:38.571Z,18.80
2023-02-22T09:03:08.000Z,19.30
2023-02-22T09:05:34.780Z,19.30
2023-02-22T09:08:01.584Z,18.60
2023-02-22T09:10:31.926Z,17.97
2023-02-22T09:13:00.738Z,19.23
2023-02-22T09:15:28.470Z,18.00
2023-02-22T09:17:55.640Z,18.00
2023-02-22T09:20:23.952Z,19.13
2023-02-22T09:22:51.112Z,19.80
2023-02-22T09:25:20.415Z,21.30
2023-02-22T09:27:49.414Z,21.60
2023-02-22T09:30:19.291Z,25.53
2023-02-22T09:32:46.305Z,19.57
2023-02-22T09:35:13.138Z,17.30
2023-02-22T09:37:39.860Z,17.63
2023-02-22T09:40:09.848Z,17.57
2023-02-22T09:42:45.557Z,18.33
2023-02-22T09:45:27.608Z,17.83
2023-02-22T09:48:05.273Z,16.47
2023-02-22T09:50:45.553Z,15.13
2023-02-22T09:53:29.706Z,18.43
2023-02-22T09:56:06.435Z,16.63
2023-02-22T09:58:36.655Z,16.20
2023-02-22T10:01:27.957Z,13.90
2023-02-22T10:04:13.624Z,15.30
2023-02-22T10:06:53.118Z,15.40
2023-02-22T10:09:20.260Z,14.20
2023-02-22T10:11:57.529Z,16.97
2023-02-22T10:14:27.572Z,14.40
2023-02-22T10:17:06.230Z,14.00
2023-02-22T10:20:04.953Z,13.20
2023-02-22T10:22:49.003Z,13.10
2023-02-22T10:25:19.760Z,13.20
2023-02-22T10:27:55.662Z,11.60
2023-02-22T10:30:34.170Z,11.63
2023-02-22T10:33:21.409Z,11.50
2023-02-22T10:35:48.720Z,10.93
2023-02-22T10:38:20.397Z,11.90
2023-02-22T10:40:59.136Z,11.90
2023-02-22T10:43:25.935Z,10.73
2023-02-22T10:45:55.797Z,11.10
2023-02-22T10:48:26.252Z,11.10
2023-02-22T10:50:58.482Z,10.03
2023-02-22T10:53:27.644Z,9.90
2023-02-22T10:56:18.314Z,9.30
2023-02-22T10:58:54.196Z,9.00
2023-02-22T11:01:43.924Z,8.70
2023-02-22T11:04:23.983Z,8.40
2023-02-22T11:07:05.749Z,8.37
2023-02-22T11:09:47.408Z,9.23
2023-02-22T11:12:27.325Z,8.27
2023-02-22T11:14:54.314Z,8.23
2023-02-22T11:17:30.317Z,8.80
2023-02-22T11:19:57.776Z,8.47
2023-02-22T11:22:30.788Z,7.00
2023-02-22T11:25:03.402Z,8.10
2023-02-22T11:27:46.940Z,8.03
2023-02-22T11:30:29.976Z,9.17
2023-02-22T11:33:15.199Z,7.40
2023-02-22T11:35:54.555Z,8.20
2023-02-22T11:38:53.374Z,7.53
2023-02-22T11:41:27.444Z,7.07
2023-02-22T11:43:54.356Z,7.17
2023-02-22T11:46:30.680Z,8.40
2023-02-22T11:49:12.215Z,7.87
2023-02-22T11:51:54.113Z,7.17
2023-02-22T11:54:53.063Z,8.50
2023-02-22T11:57:26.480Z,7.30
2023-02-22T12:00:16.300Z,7.70
2023-02-22T12:03:12.232Z,7.70
2023-02-22T12:06:09.332Z,7.13
2023-02-22T12:08:38.690Z,7.17
2023-02-22T12:11:19.722Z,7.17
2023-02-22T12:14:21.860Z,6.97
2023-02-22T12:17:00.912Z,7.30
2023-02-22T12:19:33.286Z,6.60
2023-02-22T12:22:15.403Z,7.30
2023-02-22T12:25:09.696Z,7.10
2023-02-22T12:27:43.401Z,7.70
2023-02-22T12:30:23.466Z,6.67
2023-02-22T12:32:56.209Z,7.23
2023-02-22T12:35:28.337Z,6.73
2023-02-22T12:38:19.453Z,7.43
2023-02-22T12:41:08.734Z,7.53
2023-02-22T12:43:44.811Z,7.57
2023-02-22T12:46:20.115Z,6.87
2023-02-22T12:48:54.377Z,6.40
2023-02-22T12:51:41.478Z,10.43
2023-02-22T12:54:13.991Z,6.57
2023-02-22T12:56:49.546Z,9.40
2023-02-22T12:59:38.131Z,7.07
2023-02-22T13:02:22.377Z,7.57
2023-02-22T13:04:49.304Z,8.10
2023-02-22T13:07:28.962Z,6.73
2023-02-22T13:09:59.374Z,7.50
2023-02-22T13:12:28.988Z,7.37
2023-02-22T13:15:14.600Z,7.70
2023-02-22T13:18:32.554Z,6.60
2023-02-22T13:21:18.969Z,7.03
2023-02-22T13:24:03.296Z,7.20
2023-02-22T13:26:39.609Z,6.63
2023-02-22T13:29:30.126Z,6.47
2023-02-22T13:32:16.833Z,7.17
2023-02-22T13:35:22.618Z,7.23
2023-02-22T13:38:19.423Z,6.33
2023-02-22T13:40:49.073Z,7.80
2023-02-22T13:43:33.874Z,7.10
2023-02-22T13:46:19.057Z,7.40
2023-02-22T13:48:59.300Z,7.50
2023-02-22T13:51:56.648Z,8.30
2023-02-22T13:54:44.891Z,6.80
2023-02-22T13:57:24.117Z,7.67
2023-02-22T14:00:18.261Z,6.90
2023-02-22T14:03:13.219Z,7.80
2023-02-22T14:05:41.136Z,7.03
2023-02-22T14:08:13.806Z,7.90
2023-02-22T14:10:46.309Z,7.63
2023-02-22T14:13:16.086Z,8.20
2023-02-22T14:15:58.127Z,7.20
2023-02-22T14:18:41.364Z,7.83
2023-02-22T14:21:10.950Z,6.83
2023-02-22T14:23:40.667Z,7.30
2023-02-22T14:26:25.447Z,7.43
2023-02-22T14:29:02.667Z,7.17
2023-02-22T14:31:36.925Z,7.20
2023-02-22T14:34:12.983Z,7.97
2023-02-22T14:36:51.624Z,6.57
2023-02-22T14:39:58.242Z,6.90
2023-02-22T14:42:35.549Z,7.40
2023-02-22T14:45:14.199Z,8.17
2023-02-22T14:47:54.268Z,6.93
2023-02-22T14:50:41.442Z,7.77
2023-02-22T14:53:20.624Z,7.30
2023-02-22T14:56:02.714Z,7.30
2023-02-22T14:58:36.513Z,7.50
2023-02-22T15:01:20.042Z,7.03
2023-02-22T15:03:49.723Z,7.40
2023-02-22T15:06:23.517Z,7.40
2023-02-22T15:09:07.376Z,6.70
2023-02-22T15:11:34.210Z,7.80
2023-02-22T15:14:02.178Z,7.60
2023-02-22T15:16:34.245Z,7.70
2023-02-22T15:19:07.764Z,7.77
2023-02-22T15:21:35.361Z,7.17
2023-02-22T15:24:07.789Z,8.60
2023-02-22T15:26:49.165Z,7.47
2023-02-22T15:29:32.526Z,6.93
2023-02-22T15:31:59.307Z,7.80
2023-02-22T15:34:31.732Z,7.30
2023-02-22T15:37:19.138Z,7.57
2023-02-22T15:39:45.834Z,7.87
2023-02-22T15:42:20.739Z,7.57
2023-02-22T15:44:49.790Z,7.37
2023-02-22T15:47:39.943Z,8.47
2023-02-22T15:50:25.552Z,6.73
2023-02-22T15:53:00.566Z,7.40
2023-02-22T15:55:32.727Z,7.90
2023-02-22T15:58:25.268Z,3.80
2023-02-22T16:00:59.882Z,7.30
2023-02-22T16:03:28.624Z,7.20
2023-02-22T16:05:56.919Z,6.00
2023-02-22T16:08:45.743Z,6.67
2023-02-22T16:11:35.037Z,7.30
2023-02-22T16:14:05.222Z,7.67
2023-02-22T16:16:41.337Z,7.03
2023-02-22T16:19:32.847Z,7.80
2023-02-22T16:22:03.099Z,6.87
2023-02-22T16:24:33.034Z,7.00
2023-02-22T16:27:05.812Z,7.53
2023-02-22T16:29:32.732Z,7.93
2023-02-22T16:31:59.544Z,7.63
2023-02-22T16:34:26.305Z,8.07
2023-02-22T16:36:53.092Z,7.70
2023-02-22T16:39:27.505Z,9.00
2023-02-22T16:41:56.737Z,8.60
2023-02-22T16:44:25.071Z,8.53
2023-02-22T16:46:52.873Z,8.47
2023-02-22T16:49:20.427Z,8.90
2023-02-22T16:51:56.123Z,8.90
2023-02-22T16:54:28.881Z,9.10
2023-02-22T16:57:00.183Z,9.07
2023-02-22T16:59:27.026Z,8.07
2023-02-22T17:01:54.138Z,8.53
2023-02-22T17:04:24.643Z,8.37
2023-02-22T17:06:51.672Z,7.97
2023-02-22T17:09:21.711Z,7.87
2023-02-22T17:11:51.339Z,7.10
2023-02-22T17:14:23.023Z,10.17
2023-02-22T17:16:50.913Z,9.17
2023-02-22T17:19:21.199Z,8.30
2023-02-22T17:21:48.985Z,9.37
2023-02-22T17:24:20.026Z,9.17
2023-02-22T17:26:47.311Z,6.87
2023-02-22T17:29:15.182Z,7.80
2023-02-22T17:31:42.102Z,7.60
2023-02-22T17:34:08.867Z,8.07
2023-02-22T17:36:36.397Z,8.97
2023-02-22T17:39:04.885Z,8.40
2023-02-22T17:41:31.601Z,8.60
2023-02-22T17:43:58.317Z,9.50
2023-02-22T17:46:25.417Z,8.67
2023-02-22T17:48:55.422Z,8.40
2023-02-22T17:51:25.861Z,9.40
2023-02-22T17:53:53.211Z,8.77
2023-02-22T17:56:20.302Z,9.93
2023-02-22T17:58:49.703Z,11.50
2023-02-22T18:01:30.998Z,10.80
2023-02-22T18:04:00.837Z,10.97
2023-02-22T18:06:29.956Z,10.70
2023-02-22T18:08:58.040Z,10.83
2023-02-22T18:11:26.695Z,10.33
2023-02-22T18:13:55.185Z,11.30
2023-02-22T18:16:22.747Z,10.73
2023-02-22T18:18:49.853Z,10.13
2023-02-22T18:21:17.040Z,12.50
2023-02-22T18:23:46.546Z,11.57
2023-02-22T18:26:19.017Z,10.83
2023-02-22T18:28:48.522Z,11.93
2023-02-22T18:31:18.080Z,12.97
2023-02-22T18:33:46.551Z,19.30
2023-02-22T18:36:15.247Z,14.17
2023-02-22T18:38:43.529Z,13.03
2023-02-22T18:41:15.876Z,12.53
2023-02-22T18:43:43.620Z,13.97
2023-02-22T18:46:14.425Z,14.50
2023-02-22T18:48:41.172Z,18.50
2023-02-22T18:51:10.840Z,17.63
2023-02-22T18:53:39.154Z,16.97
2023-02-22T18:56:09.002Z,22.50
2023-02-22T18:58:36.386Z,19.00
2023-02-22T19:01:04.980Z,17.20
2023-02-22T19:03:34.036Z,16.57
2023-02-22T19:06:03.170Z,16.47
2023-02-22T19:08:32.386Z,14.83
2023-02-22T19:11:25.235Z,14.87
2023-02-22T19:13:54.291Z,14.90
2023-02-22T19:16:22.721Z,15.20
2023-02-22T19:18:52.332Z,15.30
2023-02-22T19:21:20.975Z,14.30
2023-02-22T19:23:48.671Z,13.13
2023-02-22T19:26:26.444Z,11.50
2023-02-22T19:28:55.991Z,12.67
2023-02-22T19:31:33.762Z,15.03
2023-02-22T19:34:01.901Z,14.40
2023-02-22T19:36:28.970Z,14.73
2023-02-22T19:38:57.284Z,16.63
2023-02-22T19:41:24.037Z,17.73
2023-02-22T19:43:53.191Z,17.13
2023-02-22T19:46:21.307Z,17.60
2023-02-22T19:48:49.206Z,18.00
2023-02-22T19:51:17.673Z,17.23
2023-02-22T19:53:45.681Z,17.97
2023-02-22T19:56:17.888Z,18.33
2023-02-22T19:58:46.094Z,17.93
2023-02-22T20:01:13.219Z,17.57
2023-02-22T20:03:41.991Z,17.73
2023-02-22T20:06:10.696Z,19.70
2023-02-22T20:08:41.842Z,21.03
2023-02-22T20:11:12.390Z,19.50
2023-02-22T20:13:40.433Z,23.43
2023-02-22T20:16:07.969Z,20.43
2023-02-22T20:18:34.653Z,21.93
2023-02-22T20:21:07.304Z,20.70
2023-02-22T20:23:34.014Z,21.63
2023-02-22T20:26:00.840Z,20.23
2023-02-22T20:28:27.705Z,20.97
2023-02-22T20:30:54.387Z,22.30
2023-02-22T20:33:21.806Z,22.00
2023-02-22T20:35:49.542Z,23.57
2023-02-22T20:38:19.158Z,23.20
2023-02-22T20:40:46.786Z,23.40
2023-02-22T20:43:13.514Z,24.23
2023-02-22T20:45:40.181Z,24.20
2023-02-22T20:48:06.833Z,25.60
2023-02-22T20:50:35.278Z,25.63
2023-02-22T20:53:01.939Z,25.07
2023-02-22T20:55:28.630Z,25.10
2023-02-22T20:57:55.474Z,26.60
2023-02-22T21:00:22.617Z,27.23
2023-02-22T21:02:49.475Z,27.33
2023-02-22T21:05:16.184Z,28.20
2023-02-22T21:07:42.904Z,28.80
2023-02-22T21:10:10.228Z,29.07
2023-02-22T21:12:36.889Z,29.53
2023-02-22T21:15:03.817Z,30.30
2023-02-22T21:17:30.752Z,30.20
2023-02-22T21:19:58.253Z,31.17
2023-02-22T21:22:25.195Z,30.07
2023-02-22T21:24:52.242Z,32.00
2023-02-22T21:27:18.885Z,29.60
2023-02-22T21:29:45.685Z,31.47
2023-02-22T21:32:13.657Z,31.83
2023-02-22T21:34:40.503Z,33.07
2023-02-22T21:37:08.201Z,33.30
2023-02-22T21:39:35.499Z,33.60
2023-02-22T21:42:02.601Z,32.03
2023-02-22T21:44:29.863Z,34.47
2023-02-22T21:46:57.190Z,31.93
2023-02-22T21:49:24.860Z,32.70
2023-02-22T21:51:52.484Z,33.90
2023-02-22T21:54:19.405Z,33.27
2023-02-22T21:56:46.589Z,32.90
2023-02-22T21:59:19.960Z,35.63
2023-02-22T22:01:55.602Z,35.93
2023-02-22T22:04:27.799Z,36.47
2023-02-22T22:06:56.719Z,34.60
2023-02-22T22:09:24.611Z,37.80
2023-02-22T22:12:06.099Z,36.80
2023-02-22T22:14:34.559Z,37.83
2023-02-22T22:17:03.270Z,36.93
2023-02-22T22:19:34.066Z,36.70
2023-02-22T22:22:01.360Z,38.77
2023-02-22T22:24:31.888Z,40.30
2023-02-22T22:27:03.449Z,38.40
2023-02-22T22:29:30.605Z,41.17
2023-02-22T22:31:57.392Z,40.70
2023-02-22T22:34:24.241Z,45.13
2023-02-22T22:36:51.071Z,42.50
2023-02-22T22:39:20.757Z,43.10
2023-02-22T22:41:48.045Z,42.10
2023-02-22T22:44:16.322Z,42.87
2023-02-22T22:46:48.906Z,44.73
2023-02-22T22:49:16.352Z,43.73
2023-02-22T22:51:43.133Z,46.07
2023-02-22T22:54:10.388Z,46.13
2023-02-22T22:56:37.780Z,43.70
2023-02-22T22:59:09.821Z,44.30
2023-02-22T23:01:44.165Z,48.53
2023-02-22T23:04:16.080Z,47.03
2023-02-22T23:06:45.485Z,46.47
2023-02-22T23:09:23.601Z,45.40
2023-02-22T23:12:08.532Z,47.37
2023-02-22T23:14:43.843Z,44.23
2023-02-22T23:17:15.993Z,47.70
2023-02-22T23:19:44.877Z,49.70
2023-02-22T23:22:14.010Z,47.07
2023-02-22T23:24:41.412Z,47.30
2023-02-22T23:27:10.570Z,47.17
2023-02-22T23:29:39.570Z,48.37
2023-02-22T23:32:06.794Z,49.10
2023-02-22T23:34:35.930Z,47.70
2023-02-22T23:37:02.942Z,45.77
2023-02-22T23:39:29.608Z,47.53
2023-02-22T23:42:00.831Z,49.50
2023-02-22T23:44:28.163Z,50.30
2023-02-22T23:46:55.150Z,50.37
2023-02-22T23:49:26.272Z,46.00
2023-02-22T23:51:53.278Z,47.20
2023-02-22T23:54:21.464Z,48.40
2023-02-22T23:56:58.079Z,48.30
2023-02-22T23:59:27.231Z,45.47
